sensor_id;sensor_type;location;lat;lon;timestamp;temperature;humidity
439;DHT22;206;48.782;9.252;2023-10-13T00:00:26;19.80;26.40
439;DHT22;206;48.782;9.252;2023-10-13T00:02:51;19.80;26.40
439;DHT22;206;48.782;9.252;2023-10-13T00:05:18;19.80;26.30
439;DHT22;206;48.782;9.252;2023-10-13T00:07:44;19.80;26.50
439;DHT22;206;48.782;9.252;2023-10-13T00:10:10;19.80;26.50
439;DHT22;206;48.782;9.252;2023-10-13T00:12:36;19.80;26.50
439;DHT22;206;48.782;9.252;2023-10-13T00:15:04;19.70;26.70
439;DHT22;206;48.782;9.252;2023-10-13T00:17:32;19.70;26.80
439;DHT22;206;48.782;9.252;2023-10-13T00:19:58;19.70;26.90
439;DHT22;206;48.782;9.252;2023-10-13T00:22:25;19.60;27.70
439;DHT22;206;48.782;9.252;2023-10-13T00:24:53;19.60;28.20
439;DHT22;206;48.782;9.252;2023-10-13T00:27:28;19.50;28.50
439;DHT22;206;48.782;9.252;2023-10-13T00:30:05;19.40;28.60
439;DHT22;206;48.782;9.252;2023-10-13T00:32:49;19.30;28.90
439;DHT22;206;48.782;9.252;2023-10-13T00:35:22;19.20;29.20
439;DHT22;206;48.782;9.252;2023-10-13T00:37:51;19.10;29.90
439;DHT22;206;48.782;9.252;2023-10-13T00:40:19;19.10;30.50
439;DHT22;206;48.782;9.252;2023-10-13T00:43:05;19.00;30.70
439;DHT22;206;48.782;9.252;2023-10-13T00:45:59;18.90;31.50
439;DHT22;206;48.782;9.252;2023-10-13T00:48:37;18.80;32.30
439;DHT22;206;48.782;9.252;2023-10-13T00:51:17;18.70;33.00
439;DHT22;206;48.782;9.252;2023-10-13T00:53:44;18.60;33.80
439;DHT22;206;48.782;9.252;2023-10-13T00:56:12;18.60;34.30
439;DHT22;206;48.782;9.252;2023-10-13T00:58:47;18.50;34.80
439;DHT22;206;48.782;9.252;2023-10-13T01:01:16;18.40;35.00
439;DHT22;206;48.782;9.252;2023-10-13T01:03:53;18.40;35.30
439;DHT22;206;48.782;9.252;2023-10-13T01:06:25;18.40;34.60
439;DHT22;206;48.782;9.252;2023-10-13T01:09:00;18.30;33.70
439;DHT22;206;48.782;9.252;2023-10-13T01:11:35;18.30;31.80
439;DHT22;206;48.782;9.252;2023-10-13T01:14:01;18.30;31.10
439;DHT22;206;48.782;9.252;2023-10-13T01:16:29;18.30;30.90
439;DHT22;206;48.782;9.252;2023-10-13T01:18:55;18.30;31.00
439;DHT22;206;48.782;9.252;2023-10-13T01:21:25;18.40;31.00
439;DHT22;206;48.782;9.252;2023-10-13T01:23:55;18.40;31.00
439;DHT22;206;48.782;9.252;2023-10-13T01:26:20;18.40;31.70
439;DHT22;206;48.782;9.252;2023-10-13T01:28:57;18.40;31.50
439;DHT22;206;48.782;9.252;2023-10-13T01:31:23;18.30;31.50
439;DHT22;206;48.782;9.252;2023-10-13T01:33:56;18.30;31.40
439;DHT22;206;48.782;9.252;2023-10-13T01:36:26;18.30;31.20
439;DHT22;206;48.782;9.252;2023-10-13T01:38:52;18.20;30.80
439;DHT22;206;48.782;9.252;2023-10-13T01:41:20;18.10;30.70
439;DHT22;206;48.782;9.252;2023-10-13T01:43:45;18.10;29.40
439;DHT22;206;48.782;9.252;2023-10-13T01:46:11;18.10;29.40
439;DHT22;206;48.782;9.252;2023-10-13T01:48:47;18.00;30.70
439;DHT22;206;48.782;9.252;2023-10-13T01:51:13;18.00;30.70
439;DHT22;206;48.782;9.252;2023-10-13T01:53:39;18.00;31.30
439;DHT22;206;48.782;9.252;2023-10-13T01:56:07;18.00;32.00
439;DHT22;206;48.782;9.252;2023-10-13T01:58:39;17.90;32.10
439;DHT22;206;48.782;9.252;2023-10-13T02:01:09;17.90;32.30
439;DHT22;206;48.782;9.252;2023-10-13T02:03:35;17.80;32.70
439;DHT22;206;48.782;9.252;2023-10-13T02:06:11;17.80;32.40
439;DHT22;206;48.782;9.252;2023-10-13T02:08:42;17.80;32.60
439;DHT22;206;48.782;9.252;2023-10-13T02:11:09;17.70;32.30
439;DHT22;206;48.782;9.252;2023-10-13T02:13:35;17.70;31.60
439;DHT22;206;48.782;9.252;2023-10-13T02:16:13;17.70;31.60
439;DHT22;206;48.782;9.252;2023-10-13T02:18:44;17.70;31.20
439;DHT22;206;48.782;9.252;2023-10-13T02:21:09;17.60;32.10
439;DHT22;206;48.782;9.252;2023-10-13T02:23:41;17.60;32.40
439;DHT22;206;48.782;9.252;2023-10-13T02:26:29;17.60;32.50
439;DHT22;206;48.782;9.252;2023-10-13T02:29:04;17.60;33.00
439;DHT22;206;48.782;9.252;2023-10-13T02:31:39;17.50;33.40
439;DHT22;206;48.782;9.252;2023-10-13T02:34:05;17.50;34.10
439;DHT22;206;48.782;9.252;2023-10-13T02:36:38;17.50;35.20
439;DHT22;206;48.782;9.252;2023-10-13T02:39:14;17.50;34.70
439;DHT22;206;48.782;9.252;2023-10-13T02:41:41;17.50;35.10
439;DHT22;206;48.782;9.252;2023-10-13T02:44:13;17.40;35.70
439;DHT22;206;48.782;9.252;2023-10-13T02:46:45;17.40;35.70
439;DHT22;206;48.782;9.252;2023-10-13T02:49:16;17.30;35.90
439;DHT22;206;48.782;9.252;2023-10-13T02:51:45;17.30;36.60
439;DHT22;206;48.782;9.252;2023-10-13T02:54:10;17.30;36.50
439;DHT22;206;48.782;9.252;2023-10-13T02:56:38;17.30;37.10
439;DHT22;206;48.782;9.252;2023-10-13T02:59:13;17.20;37.20
439;DHT22;206;48.782;9.252;2023-10-13T03:01:38;17.20;36.90
439;DHT22;206;48.782;9.252;2023-10-13T03:04:05;17.20;36.80
439;DHT22;206;48.782;9.252;2023-10-13T03:06:35;17.20;38.10
439;DHT22;206;48.782;9.252;2023-10-13T03:09:06;17.20;38.30
439;DHT22;206;48.782;9.252;2023-10-13T03:11:43;17.10;38.70
439;DHT22;206;48.782;9.252;2023-10-13T03:14:14;17.10;39.10
439;DHT22;206;48.782;9.252;2023-10-13T03:16:57;17.00;38.90
439;DHT22;206;48.782;9.252;2023-10-13T03:19:29;17.00;39.20
439;DHT22;206;48.782;9.252;2023-10-13T03:22:02;16.90;38.10
439;DHT22;206;48.782;9.252;2023-10-13T03:24:38;16.90;37.90
439;DHT22;206;48.782;9.252;2023-10-13T03:27:19;16.90;37.60
439;DHT22;206;48.782;9.252;2023-10-13T03:29:49;16.90;38.30
439;DHT22;206;48.782;9.252;2023-10-13T03:32:19;16.90;38.80
439;DHT22;206;48.782;9.252;2023-10-13T03:34:46;16.90;39.00
439;DHT22;206;48.782;9.252;2023-10-13T03:37:19;16.80;39.00
439;DHT22;206;48.782;9.252;2023-10-13T03:40:05;16.80;39.20
439;DHT22;206;48.782;9.252;2023-10-13T03:42:32;16.80;39.60
439;DHT22;206;48.782;9.252;2023-10-13T03:44:58;16.70;39.70
439;DHT22;206;48.782;9.252;2023-10-13T03:47:24;16.60;39.60
439;DHT22;206;48.782;9.252;2023-10-13T03:49:53;16.60;40.30
439;DHT22;206;48.782;9.252;2023-10-13T03:52:39;16.60;41.00
439;DHT22;206;48.782;9.252;2023-10-13T03:55:05;16.50;41.40
439;DHT22;206;48.782;9.252;2023-10-13T03:57:32;16.50;41.40
439;DHT22;206;48.782;9.252;2023-10-13T04:00:04;16.50;41.50
439;DHT22;206;48.782;9.252;2023-10-13T04:02:35;16.40;41.70
439;DHT22;206;48.782;9.252;2023-10-13T04:05:02;16.40;42.20
439;DHT22;206;48.782;9.252;2023-10-13T04:07:35;16.40;42.10
439;DHT22;206;48.782;9.252;2023-10-13T04:10:26;16.30;42.00
439;DHT22;206;48.782;9.252;2023-10-13T04:13:10;16.40;42.20
439;DHT22;206;48.782;9.252;2023-10-13T04:15:54;16.40;42.40
439;DHT22;206;48.782;9.252;2023-10-13T04:18:38;16.30;42.30
439;DHT22;206;48.782;9.252;2023-10-13T04:21:22;16.30;42.20
439;DHT22;206;48.782;9.252;2023-10-13T04:24:11;16.30;42.20
439;DHT22;206;48.782;9.252;2023-10-13T04:26:42;16.30;42.40
439;DHT22;206;48.782;9.252;2023-10-13T04:29:28;16.20;42.40
439;DHT22;206;48.782;9.252;2023-10-13T04:32:13;16.20;42.60
439;DHT22;206;48.782;9.252;2023-10-13T04:34:41;16.20;42.80
439;DHT22;206;48.782;9.252;2023-10-13T04:37:11;16.10;43.00
439;DHT22;206;48.782;9.252;2023-10-13T04:39:56;16.20;43.30
439;DHT22;206;48.782;9.252;2023-10-13T04:42:37;16.10;43.60
439;DHT22;206;48.782;9.252;2023-10-13T04:45:17;16.10;43.40
439;DHT22;206;48.782;9.252;2023-10-13T04:48:01;16.10;43.50
439;DHT22;206;48.782;9.252;2023-10-13T04:50:49;16.10;43.50
439;DHT22;206;48.782;9.252;2023-10-13T04:53:24;16.00;43.00
439;DHT22;206;48.782;9.252;2023-10-13T04:55:58;16.00;42.80
439;DHT22;206;48.782;9.252;2023-10-13T04:58:52;16.00;42.80
439;DHT22;206;48.782;9.252;2023-10-13T05:01:37;16.00;43.10
439;DHT22;206;48.782;9.252;2023-10-13T05:04:25;15.90;43.10
439;DHT22;206;48.782;9.252;2023-10-13T05:07:22;16.00;42.70
439;DHT22;206;48.782;9.252;2023-10-13T05:10:06;15.90;42.80
439;DHT22;206;48.782;9.252;2023-10-13T05:12:51;15.90;43.40
439;DHT22;206;48.782;9.252;2023-10-13T05:15:43;15.90;43.80
439;DHT22;206;48.782;9.252;2023-10-13T05:18:27;15.90;44.10
439;DHT22;206;48.782;9.252;2023-10-13T05:21:11;15.90;44.60
439;DHT22;206;48.782;9.252;2023-10-13T05:23:55;15.90;44.70
439;DHT22;206;48.782;9.252;2023-10-13T05:26:39;15.90;45.10
439;DHT22;206;48.782;9.252;2023-10-13T05:29:23;15.90;45.60
439;DHT22;206;48.782;9.252;2023-10-13T05:32:07;15.80;45.90
439;DHT22;206;48.782;9.252;2023-10-13T05:34:51;15.80;46.50
439;DHT22;206;48.782;9.252;2023-10-13T05:37:35;15.80;46.60
439;DHT22;206;48.782;9.252;2023-10-13T05:40:19;15.80;47.00
439;DHT22;206;48.782;9.252;2023-10-13T05:43:03;15.80;47.20
439;DHT22;206;48.782;9.252;2023-10-13T05:45:47;15.70;47.60
439;DHT22;206;48.782;9.252;2023-10-13T05:48:31;15.70;47.90
439;DHT22;206;48.782;9.252;2023-10-13T05:51:17;15.70;48.30
439;DHT22;206;48.782;9.252;2023-10-13T05:54:04;15.60;48.70
439;DHT22;206;48.782;9.252;2023-10-13T05:56:49;15.60;48.70
439;DHT22;206;48.782;9.252;2023-10-13T05:59:35;15.60;48.70
439;DHT22;206;48.782;9.252;2023-10-13T06:02:20;15.70;48.60
439;DHT22;206;48.782;9.252;2023-10-13T06:05:05;15.70;48.10
439;DHT22;206;48.782;9.252;2023-10-13T06:07:50;15.80;47.50
439;DHT22;206;48.782;9.252;2023-10-13T06:10:34;15.80;46.70
439;DHT22;206;48.782;9.252;2023-10-13T06:13:18;15.90;46.20
439;DHT22;206;48.782;9.252;2023-10-13T06:16:10;16.00;45.40
439;DHT22;206;48.782;9.252;2023-10-13T06:18:55;16.20;44.60
439;DHT22;206;48.782;9.252;2023-10-13T06:21:40;16.30;43.90
439;DHT22;206;48.782;9.252;2023-10-13T06:24:24;16.40;42.70
439;DHT22;206;48.782;9.252;2023-10-13T06:27:08;16.50;41.40
439;DHT22;206;48.782;9.252;2023-10-13T06:29:52;16.60;40.70
439;DHT22;206;48.782;9.252;2023-10-13T06:32:21;16.70;40.30
439;DHT22;206;48.782;9.252;2023-10-13T06:34:52;16.90;39.90
439;DHT22;206;48.782;9.252;2023-10-13T06:37:23;17.00;39.30
439;DHT22;206;48.782;9.252;2023-10-13T06:40:01;17.10;38.60
439;DHT22;206;48.782;9.252;2023-10-13T06:42:41;17.10;38.60
439;DHT22;206;48.782;9.252;2023-10-13T06:45:10;17.30;36.60
439;DHT22;206;48.782;9.252;2023-10-13T06:47:37;17.30;36.60
439;DHT22;206;48.782;9.252;2023-10-13T06:50:17;17.40;36.00
439;DHT22;206;48.782;9.252;2023-10-13T06:52:48;17.60;35.30
439;DHT22;206;48.782;9.252;2023-10-13T06:55:15;17.60;34.70
439;DHT22;206;48.782;9.252;2023-10-13T06:57:49;17.80;34.10
439;DHT22;206;48.782;9.252;2023-10-13T07:00:17;17.80;33.90
439;DHT22;206;48.782;9.252;2023-10-13T07:02:53;17.80;33.90
439;DHT22;206;48.782;9.252;2023-10-13T07:05:18;17.70;34.30
439;DHT22;206;48.782;9.252;2023-10-13T07:07:45;17.70;34.30
439;DHT22;206;48.782;9.252;2023-10-13T07:10:11;17.70;34.40
439;DHT22;206;48.782;9.252;2023-10-13T07:12:38;17.70;34.70
439;DHT22;206;48.782;9.252;2023-10-13T07:15:09;17.60;35.00
439;DHT22;206;48.782;9.252;2023-10-13T07:17:46;17.60;35.50
439;DHT22;206;48.782;9.252;2023-10-13T07:20:12;17.60;35.50
439;DHT22;206;48.782;9.252;2023-10-13T07:22:50;17.70;35.30
439;DHT22;206;48.782;9.252;2023-10-13T07:25:32;17.80;35.20
439;DHT22;206;48.782;9.252;2023-10-13T07:28:01;17.70;34.90
439;DHT22;206;48.782;9.252;2023-10-13T07:30:29;17.80;34.90
439;DHT22;206;48.782;9.252;2023-10-13T07:32:56;17.80;34.00
439;DHT22;206;48.782;9.252;2023-10-13T07:35:25;18.00;33.00
439;DHT22;206;48.782;9.252;2023-10-13T07:37:52;18.10;32.60
439;DHT22;206;48.782;9.252;2023-10-13T07:40:22;18.20;32.40
439;DHT22;206;48.782;9.252;2023-10-13T07:42:50;18.30;31.50
439;DHT22;206;48.782;9.252;2023-10-13T07:45:16;18.50;31.10
439;DHT22;206;48.782;9.252;2023-10-13T07:47:47;18.70;31.20
439;DHT22;206;48.782;9.252;2023-10-13T07:50:14;18.90;30.20
439;DHT22;206;48.782;9.252;2023-10-13T07:52:39;19.10;29.30
439;DHT22;206;48.782;9.252;2023-10-13T07:55:07;19.30;28.50
439;DHT22;206;48.782;9.252;2023-10-13T07:57:47;19.40;28.30
439;DHT22;206;48.782;9.252;2023-10-13T08:00:25;19.50;27.50
439;DHT22;206;48.782;9.252;2023-10-13T08:03:03;19.70;26.70
439;DHT22;206;48.782;9.252;2023-10-13T08:05:51;19.90;25.80
439;DHT22;206;48.782;9.252;2023-10-13T08:08:33;20.00;24.60
439;DHT22;206;48.782;9.252;2023-10-13T08:11:11;20.10;24.30
439;DHT22;206;48.782;9.252;2023-10-13T08:13:38;20.20;24.00
439;DHT22;206;48.782;9.252;2023-10-13T08:16:05;20.40;24.00
439;DHT22;206;48.782;9.252;2023-10-13T08:18:35;20.50;22.80
439;DHT22;206;48.782;9.252;2023-10-13T08:21:02;20.70;22.10
439;DHT22;206;48.782;9.252;2023-10-13T08:23:29;20.90;21.00
439;DHT22;206;48.782;9.252;2023-10-13T08:26:27;21.00;20.20
439;DHT22;206;48.782;9.252;2023-10-13T08:28:58;21.10;19.70
439;DHT22;206;48.782;9.252;2023-10-13T08:31:52;21.20;19.30
439;DHT22;206;48.782;9.252;2023-10-13T08:34:36;21.40;19.40
439;DHT22;206;48.782;9.252;2023-10-13T08:37:30;21.50;19.50
439;DHT22;206;48.782;9.252;2023-10-13T08:40:15;21.60;19.30
439;DHT22;206;48.782;9.252;2023-10-13T08:43:06;21.70;19.50
439;DHT22;206;48.782;9.252;2023-10-13T08:45:38;21.80;19.30
439;DHT22;206;48.782;9.252;2023-10-13T08:48:06;21.90;18.70
439;DHT22;206;48.782;9.252;2023-10-13T08:50:48;21.90;18.30
439;DHT22;206;48.782;9.252;2023-10-13T08:53:24;22.00;17.90
439;DHT22;206;48.782;9.252;2023-10-13T08:56:13;22.00;17.50
439;DHT22;206;48.782;9.252;2023-10-13T08:58:39;22.10;16.80
439;DHT22;206;48.782;9.252;2023-10-13T09:01:34;22.30;17.00
439;DHT22;206;48.782;9.252;2023-10-13T09:04:25;22.40;15.80
439;DHT22;206;48.782;9.252;2023-10-13T09:07:01;22.60;15.40
439;DHT22;206;48.782;9.252;2023-10-13T09:12:23;22.80;14.70
439;DHT22;206;48.782;9.252;2023-10-13T09:15:08;23.00;14.60
439;DHT22;206;48.782;9.252;2023-10-13T09:17:45;23.20;14.20
439;DHT22;206;48.782;9.252;2023-10-13T09:20:17;23.40;14.20
439;DHT22;206;48.782;9.252;2023-10-13T09:22:55;23.50;14.30
439;DHT22;206;48.782;9.252;2023-10-13T09:25:29;23.60;14.50
439;DHT22;206;48.782;9.252;2023-10-13T09:28:02;23.60;14.90
439;DHT22;206;48.782;9.252;2023-10-13T09:30:28;23.70;14.70
439;DHT22;206;48.782;9.252;2023-10-13T09:33:04;23.70;14.80
439;DHT22;206;48.782;9.252;2023-10-13T09:35:30;23.80;14.90
439;DHT22;206;48.782;9.252;2023-10-13T09:38:00;23.90;15.10
439;DHT22;206;48.782;9.252;2023-10-13T09:40:28;24.00;14.70
439;DHT22;206;48.782;9.252;2023-10-13T09:43:03;24.20;14.50
439;DHT22;206;48.782;9.252;2023-10-13T09:45:33;24.30;13.50
439;DHT22;206;48.782;9.252;2023-10-13T09:48:09;24.40;13.20
439;DHT22;206;48.782;9.252;2023-10-13T09:50:43;24.60;13.00
439;DHT22;206;48.782;9.252;2023-10-13T09:53:10;24.70;13.10
439;DHT22;206;48.782;9.252;2023-10-13T09:55:42;24.80;12.70
439;DHT22;206;48.782;9.252;2023-10-13T09:58:11;25.00;12.10
439;DHT22;206;48.782;9.252;2023-10-13T10:00:59;25.10;11.10
439;DHT22;206;48.782;9.252;2023-10-13T10:03:46;25.30;9.20
439;DHT22;206;48.782;9.252;2023-10-13T10:06:33;25.50;8.20
439;DHT22;206;48.782;9.252;2023-10-13T10:09:11;25.70;7.10
439;DHT22;206;48.782;9.252;2023-10-13T10:12:16;25.80;7.00
439;DHT22;206;48.782;9.252;2023-10-13T10:15:06;26.00;6.50
439;DHT22;206;48.782;9.252;2023-10-13T10:17:42;26.20;5.90
439;DHT22;206;48.782;9.252;2023-10-13T10:20:09;26.20;5.40
439;DHT22;206;48.782;9.252;2023-10-13T10:22:58;26.30;5.80
439;DHT22;206;48.782;9.252;2023-10-13T10:25:33;26.30;5.70
439;DHT22;206;48.782;9.252;2023-10-13T10:28:07;26.40;5.90
439;DHT22;206;48.782;9.252;2023-10-13T10:30:37;26.60;5.50
439;DHT22;206;48.782;9.252;2023-10-13T10:33:08;26.70;5.50
439;DHT22;206;48.782;9.252;2023-10-13T10:35:45;26.70;4.80
439;DHT22;206;48.782;9.252;2023-10-13T10:38:17;26.70;4.60
439;DHT22;206;48.782;9.252;2023-10-13T10:43:28;26.90;4.40
439;DHT22;206;48.782;9.252;2023-10-13T10:46:29;27.10;4.30
439;DHT22;206;48.782;9.252;2023-10-13T10:49:05;27.20;3.90
439;DHT22;206;48.782;9.252;2023-10-13T10:51:32;27.30;3.80
439;DHT22;206;48.782;9.252;2023-10-13T10:53:59;27.30;3.90
439;DHT22;206;48.782;9.252;2023-10-13T10:56:37;27.30;3.90
439;DHT22;206;48.782;9.252;2023-10-13T10:59:04;27.40;4.40
439;DHT22;206;48.782;9.252;2023-10-13T11:01:31;27.50;4.10
439;DHT22;206;48.782;9.252;2023-10-13T11:04:04;27.60;3.50
439;DHT22;206;48.782;9.252;2023-10-13T11:06:35;27.80;3.40
439;DHT22;206;48.782;9.252;2023-10-13T11:09:07;28.00;2.80
439;DHT22;206;48.782;9.252;2023-10-13T11:11:54;28.00;2.70
439;DHT22;206;48.782;9.252;2023-10-13T11:14:23;27.80;3.20
439;DHT22;206;48.782;9.252;2023-10-13T11:16:49;27.70;3.10
439;DHT22;206;48.782;9.252;2023-10-13T11:19:20;27.80;3.60
439;DHT22;206;48.782;9.252;2023-10-13T11:21:46;27.90;2.80
439;DHT22;206;48.782;9.252;2023-10-13T11:24:13;28.10;2.80
439;DHT22;206;48.782;9.252;2023-10-13T11:26:39;28.20;2.80
439;DHT22;206;48.782;9.252;2023-10-13T11:29:15;28.30;2.80
439;DHT22;206;48.782;9.252;2023-10-13T11:31:45;28.40;2.40
439;DHT22;206;48.782;9.252;2023-10-13T11:34:12;28.40;2.90
439;DHT22;206;48.782;9.252;2023-10-13T11:36:42;28.50;2.00
439;DHT22;206;48.782;9.252;2023-10-13T11:39:08;28.40;1.90
439;DHT22;206;48.782;9.252;2023-10-13T11:41:33;28.40;1.80
439;DHT22;206;48.782;9.252;2023-10-13T11:44:01;28.40;2.00
439;DHT22;206;48.782;9.252;2023-10-13T11:46:38;28.30;2.40
439;DHT22;206;48.782;9.252;2023-10-13T11:49:11;28.30;2.10
439;DHT22;206;48.782;9.252;2023-10-13T11:51:43;28.30;1.80
439;DHT22;206;48.782;9.252;2023-10-13T11:54:23;28.40;2.00
439;DHT22;206;48.782;9.252;2023-10-13T11:56:49;28.50;2.10
439;DHT22;206;48.782;9.252;2023-10-13T11:59:15;28.60;1.50
439;DHT22;206;48.782;9.252;2023-10-13T12:01:48;28.70;1.70
439;DHT22;206;48.782;9.252;2023-10-13T12:04:33;28.80;1.50
439;DHT22;206;48.782;9.252;2023-10-13T12:07:18;28.80;1.20
439;DHT22;206;48.782;9.252;2023-10-13T12:09:50;28.90;1.50
439;DHT22;206;48.782;9.252;2023-10-13T12:12:23;28.90;1.00
439;DHT22;206;48.782;9.252;2023-10-13T12:14:49;28.90;1.00
439;DHT22;206;48.782;9.252;2023-10-13T12:17:34;28.80;1.40
439;DHT22;206;48.782;9.252;2023-10-13T12:20:01;28.90;1.00
439;DHT22;206;48.782;9.252;2023-10-13T12:22:30;28.90;1.00
439;DHT22;206;48.782;9.252;2023-10-13T12:25:07;28.90;1.00
439;DHT22;206;48.782;9.252;2023-10-13T12:27:50;28.90;1.00
439;DHT22;206;48.782;9.252;2023-10-13T12:30:21;28.90;1.00
439;DHT22;206;48.782;9.252;2023-10-13T12:33:24;29.00;1.00
439;DHT22;206;48.782;9.252;2023-10-13T12:35:57;29.00;1.00
439;DHT22;206;48.782;9.252;2023-10-13T12:38:32;29.00;1.00
439;DHT22;206;48.782;9.252;2023-10-13T12:41:17;29.00;1.00
439;DHT22;206;48.782;9.252;2023-10-13T12:44:03;29.10;1.00
439;DHT22;206;48.782;9.252;2023-10-13T12:46:47;29.00;1.00
439;DHT22;206;48.782;9.252;2023-10-13T12:49:35;29.00;1.00
439;DHT22;206;48.782;9.252;2023-10-13T12:52:21;29.00;1.00
439;DHT22;206;48.782;9.252;2023-10-13T12:54:57;29.00;1.00
439;DHT22;206;48.782;9.252;2023-10-13T12:57:27;29.10;1.00
439;DHT22;206;48.782;9.252;2023-10-13T12:59:54;29.20;1.00
439;DHT22;206;48.782;9.252;2023-10-13T13:02:21;29.20;1.00
439;DHT22;206;48.782;9.252;2023-10-13T13:04:47;29.30;1.00
439;DHT22;206;48.782;9.252;2023-10-13T13:07:18;29.30;1.00
439;DHT22;206;48.782;9.252;2023-10-13T13:09:44;29.40;1.00
439;DHT22;206;48.782;9.252;2023-10-13T13:12:09;29.50;1.00
439;DHT22;206;48.782;9.252;2023-10-13T13:14:38;29.70;1.00
439;DHT22;206;48.782;9.252;2023-10-13T13:17:06;29.80;1.00
439;DHT22;206;48.782;9.252;2023-10-13T13:19:33;29.90;1.00
439;DHT22;206;48.782;9.252;2023-10-13T13:22:05;29.90;1.00
439;DHT22;206;48.782;9.252;2023-10-13T13:24:31;29.90;1.00
439;DHT22;206;48.782;9.252;2023-10-13T13:26:57;30.00;1.00
439;DHT22;206;48.782;9.252;2023-10-13T13:29:28;30.00;1.00
439;DHT22;206;48.782;9.252;2023-10-13T13:31:54;30.00;1.00
439;DHT22;206;48.782;9.252;2023-10-13T13:34:20;30.00;1.00
439;DHT22;206;48.782;9.252;2023-10-13T13:36:47;30.00;1.00
439;DHT22;206;48.782;9.252;2023-10-13T13:39:18;30.00;1.00
439;DHT22;206;48.782;9.252;2023-10-13T13:41:53;30.00;1.00
439;DHT22;206;48.782;9.252;2023-10-13T13:44:23;30.00;1.00
439;DHT22;206;48.782;9.252;2023-10-13T13:46:55;29.90;1.00
439;DHT22;206;48.782;9.252;2023-10-13T13:49:22;29.80;1.00
439;DHT22;206;48.782;9.252;2023-10-13T13:51:55;29.70;1.00
439;DHT22;206;48.782;9.252;2023-10-13T13:54:20;29.70;1.00
439;DHT22;206;48.782;9.252;2023-10-13T13:56:47;29.70;1.00
439;DHT22;206;48.782;9.252;2023-10-13T13:59:12;29.70;1.00
439;DHT22;206;48.782;9.252;2023-10-13T14:01:43;29.60;1.00
439;DHT22;206;48.782;9.252;2023-10-13T14:04:10;29.60;1.00
439;DHT22;206;48.782;9.252;2023-10-13T14:06:36;29.50;1.00
439;DHT22;206;48.782;9.252;2023-10-13T14:09:03;29.50;1.00
439;DHT22;206;48.782;9.252;2023-10-13T14:11:39;29.40;1.00
439;DHT22;206;48.782;9.252;2023-10-13T14:14:14;29.40;1.00
439;DHT22;206;48.782;9.252;2023-10-13T14:16:52;29.30;1.00
439;DHT22;206;48.782;9.252;2023-10-13T14:19:19;29.30;1.00
439;DHT22;206;48.782;9.252;2023-10-13T14:21:55;29.40;1.00
439;DHT22;206;48.782;9.252;2023-10-13T14:24:22;29.30;1.00
439;DHT22;206;48.782;9.252;2023-10-13T14:26:55;29.20;1.00
439;DHT22;206;48.782;9.252;2023-10-13T14:29:20;29.10;1.00
439;DHT22;206;48.782;9.252;2023-10-13T14:31:46;29.10;1.00
439;DHT22;206;48.782;9.252;2023-10-13T14:34:14;29.10;1.00
439;DHT22;206;48.782;9.252;2023-10-13T14:36:43;29.10;1.00
439;DHT22;206;48.782;9.252;2023-10-13T14:39:18;29.00;1.00
439;DHT22;206;48.782;9.252;2023-10-13T14:41:46;29.00;1.00
439;DHT22;206;48.782;9.252;2023-10-13T14:44:16;29.00;1.00
439;DHT22;206;48.782;9.252;2023-10-13T14:46:41;28.90;1.00
439;DHT22;206;48.782;9.252;2023-10-13T14:49:08;28.90;1.00
439;DHT22;206;48.782;9.252;2023-10-13T14:51:33;28.90;1.00
439;DHT22;206;48.782;9.252;2023-10-13T14:54:06;28.90;1.00
439;DHT22;206;48.782;9.252;2023-10-13T14:56:31;28.90;1.00
439;DHT22;206;48.782;9.252;2023-10-13T14:58:57;28.90;1.00
439;DHT22;206;48.782;9.252;2023-10-13T15:01:23;28.90;1.00
439;DHT22;206;48.782;9.252;2023-10-13T15:03:53;28.80;1.00
439;DHT22;206;48.782;9.252;2023-10-13T15:06:26;28.80;1.00
439;DHT22;206;48.782;9.252;2023-10-13T15:08:56;28.80;1.00
439;DHT22;206;48.782;9.252;2023-10-13T15:11:22;28.80;1.00
439;DHT22;206;48.782;9.252;2023-10-13T15:13:52;28.70;1.00
439;DHT22;206;48.782;9.252;2023-10-13T15:16:20;28.60;1.00
439;DHT22;206;48.782;9.252;2023-10-13T15:18:47;28.60;1.00
439;DHT22;206;48.782;9.252;2023-10-13T15:21:27;28.50;1.00
439;DHT22;206;48.782;9.252;2023-10-13T15:24:04;28.50;1.00
439;DHT22;206;48.782;9.252;2023-10-13T15:26:39;28.40;1.00
439;DHT22;206;48.782;9.252;2023-10-13T15:29:07;28.30;1.00
439;DHT22;206;48.782;9.252;2023-10-13T15:31:38;28.30;1.00
439;DHT22;206;48.782;9.252;2023-10-13T15:34:12;28.30;1.00
439;DHT22;206;48.782;9.252;2023-10-13T15:36:44;28.40;1.00
439;DHT22;206;48.782;9.252;2023-10-13T15:39:10;28.40;1.00
439;DHT22;206;48.782;9.252;2023-10-13T15:41:37;28.30;1.00
439;DHT22;206;48.782;9.252;2023-10-13T15:44:11;28.20;1.00
439;DHT22;206;48.782;9.252;2023-10-13T15:46:38;28.10;1.00
439;DHT22;206;48.782;9.252;2023-10-13T15:49:05;28.10;1.00
439;DHT22;206;48.782;9.252;2023-10-13T15:51:34;28.00;1.00
439;DHT22;206;48.782;9.252;2023-10-13T15:54:02;27.90;1.00
439;DHT22;206;48.782;9.252;2023-10-13T15:56:29;27.80;1.00
439;DHT22;206;48.782;9.252;2023-10-13T15:58:59;27.70;1.00
439;DHT22;206;48.782;9.252;2023-10-13T16:01:26;27.60;1.00
439;DHT22;206;48.782;9.252;2023-10-13T16:03:53;27.50;1.00
439;DHT22;206;48.782;9.252;2023-10-13T16:06:19;27.40;1.00
439;DHT22;206;48.782;9.252;2023-10-13T16:08:45;27.30;1.00
439;DHT22;206;48.782;9.252;2023-10-13T16:11:14;27.20;1.00
439;DHT22;206;48.782;9.252;2023-10-13T16:13:43;27.10;1.00
439;DHT22;206;48.782;9.252;2023-10-13T16:16:19;27.10;1.00
439;DHT22;206;48.782;9.252;2023-10-13T16:18:48;27.00;1.00
439;DHT22;206;48.782;9.252;2023-10-13T16:21:13;26.90;1.00
439;DHT22;206;48.782;9.252;2023-10-13T16:23:40;26.80;1.00
439;DHT22;206;48.782;9.252;2023-10-13T16:26:09;26.70;1.00
439;DHT22;206;48.782;9.252;2023-10-13T16:28:35;26.70;1.00
439;DHT22;206;48.782;9.252;2023-10-13T16:31:05;26.60;1.00
439;DHT22;206;48.782;9.252;2023-10-13T16:33:36;26.50;1.00
439;DHT22;206;48.782;9.252;2023-10-13T16:36:02;26.40;1.00
439;DHT22;206;48.782;9.252;2023-10-13T16:38:31;26.30;1.00
439;DHT22;206;48.782;9.252;2023-10-13T16:40:57;26.20;1.00
439;DHT22;206;48.782;9.252;2023-10-13T16:43:22;26.10;1.00
439;DHT22;206;48.782;9.252;2023-10-13T16:45:48;26.00;1.00
439;DHT22;206;48.782;9.252;2023-10-13T16:48:14;25.90;1.00
439;DHT22;206;48.782;9.252;2023-10-13T16:50:45;25.80;1.00
439;DHT22;206;48.782;9.252;2023-10-13T16:53:14;25.70;1.00
439;DHT22;206;48.782;9.252;2023-10-13T16:55:40;25.60;1.00
439;DHT22;206;48.782;9.252;2023-10-13T16:58:09;25.50;1.00
439;DHT22;206;48.782;9.252;2023-10-13T17:00:39;25.40;1.00
439;DHT22;206;48.782;9.252;2023-10-13T17:03:08;25.20;1.00
439;DHT22;206;48.782;9.252;2023-10-13T17:05:46;25.10;1.00
439;DHT22;206;48.782;9.252;2023-10-13T17:08:12;25.00;1.10
439;DHT22;206;48.782;9.252;2023-10-13T17:10:39;24.90;1.10
439;DHT22;206;48.782;9.252;2023-10-13T17:13:05;24.70;1.00
439;DHT22;206;48.782;9.252;2023-10-13T17:15:35;24.60;1.50
439;DHT22;206;48.782;9.252;2023-10-13T17:18:05;24.50;1.80
439;DHT22;206;48.782;9.252;2023-10-13T17:20:38;24.40;2.20
439;DHT22;206;48.782;9.252;2023-10-13T17:23:05;24.30;2.50
439;DHT22;206;48.782;9.252;2023-10-13T17:25:32;24.20;2.60
439;DHT22;206;48.782;9.252;2023-10-13T17:27:58;24.20;3.00